sensor_id;sensor_type;location;lat;lon;timestamp;P1;durP1;ratioP1;P2;durP2;ratioP2
1721;SDS011;858;53.190;8.596;2022-12-07T00:00:13;24.52;;;16.20;;
1721;SDS011;858;53.190;8.596;2022-12-07T00:02:40;25.27;;;16.60;;
1721;SDS011;858;53.190;8.596;2022-12-07T00:05:06;21.42;;;15.25;;
1721;SDS011;858;53.190;8.596;2022-12-07T00:07:34;27.77;;;16.25;;
1721;SDS011;858;53.190;8.596;2022-12-07T00:10:03;26.23;;;16.13;;
1721;SDS011;858;53.190;8.596;2022-12-07T00:12:29;22.02;;;14.68;;
1721;SDS011;858;53.190;8.596;2022-12-07T00:14:55;22.20;;;14.13;;
1721;SDS011;858;53.190;8.596;2022-12-07T00:17:21;20.98;;;14.10;;
1721;SDS011;858;53.190;8.596;2022-12-07T00:19:48;24.60;;;14.70;;
1721;SDS011;858;53.190;8.596;2022-12-07T00:22:14;24.83;;;15.13;;
1721;SDS011;858;53.190;8.596;2022-12-07T00:24:41;22.10;;;13.50;;
1721;SDS011;858;53.190;8.596;2022-12-07T00:27:08;22.80;;;13.80;;
1721;SDS011;858;53.190;8.596;2022-12-07T00:29:35;21.17;;;13.70;;
1721;SDS011;858;53.190;8.596;2022-12-07T00:32:02;22.38;;;13.10;;
1721;SDS011;858;53.190;8.596;2022-12-07T00:34:28;19.42;;;12.68;;
1721;SDS011;858;53.190;8.596;2022-12-07T00:36:55;18.53;;;11.30;;
1721;SDS011;858;53.190;8.596;2022-12-07T00:39:21;20.17;;;11.50;;
1721;SDS011;858;53.190;8.596;2022-12-07T00:41:48;19.75;;;12.20;;
1721;SDS011;858;53.190;8.596;2022-12-07T00:44:15;15.43;;;10.43;;
1721;SDS011;858;53.190;8.596;2022-12-07T00:46:42;14.13;;;9.70;;
1721;SDS011;858;53.190;8.596;2022-12-07T00:49:10;14.07;;;9.10;;
1721;SDS011;858;53.190;8.596;2022-12-07T00:51:36;16.70;;;8.80;;
1721;SDS011;858;53.190;8.596;2022-12-07T00:54:03;17.40;;;7.90;;
1721;SDS011;858;53.190;8.596;2022-12-07T00:56:29;14.57;;;8.25;;
1721;SDS011;858;53.190;8.596;2022-12-07T00:58:57;15.32;;;8.00;;
1721;SDS011;858;53.190;8.596;2022-12-07T01:01:26;14.25;;;7.80;;
1721;SDS011;858;53.190;8.596;2022-12-07T01:03:52;16.88;;;8.45;;
1721;SDS011;858;53.190;8.596;2022-12-07T01:06:19;11.55;;;7.50;;
1721;SDS011;858;53.190;8.596;2022-12-07T01:08:46;13.65;;;7.40;;
1721;SDS011;858;53.190;8.596;2022-12-07T01:11:14;14.27;;;7.72;;
1721;SDS011;858;53.190;8.596;2022-12-07T01:13:41;12.80;;;6.68;;
1721;SDS011;858;53.190;8.596;2022-12-07T01:16:08;13.52;;;6.60;;
1721;SDS011;858;53.190;8.596;2022-12-07T01:18:38;14.30;;;6.40;;
1721;SDS011;858;53.190;8.596;2022-12-07T01:21:05;11.60;;;5.55;;
1721;SDS011;858;53.190;8.596;2022-12-07T01:23:32;9.43;;;4.73;;
1721;SDS011;858;53.190;8.596;2022-12-07T01:25:59;8.70;;;4.25;;
1721;SDS011;858;53.190;8.596;2022-12-07T01:28:26;8.90;;;4.03;;
1721;SDS011;858;53.190;8.596;2022-12-07T01:30:56;9.00;;;3.80;;
1721;SDS011;858;53.190;8.596;2022-12-07T01:33:23;9.77;;;3.80;;
1721;SDS011;858;53.190;8.596;2022-12-07T01:35:50;15.30;;;4.50;;
1721;SDS011;858;53.190;8.596;2022-12-07T01:38:17;7.87;;;3.40;;
1721;SDS011;858;53.190;8.596;2022-12-07T01:40:43;8.18;;;3.60;;
1721;SDS011;858;53.190;8.596;2022-12-07T01:43:13;10.57;;;4.20;;
1721;SDS011;858;53.190;8.596;2022-12-07T01:45:41;7.88;;;3.95;;
1721;SDS011;858;53.190;8.596;2022-12-07T01:48:08;8.60;;;4.00;;
1721;SDS011;858;53.190;8.596;2022-12-07T01:50:35;10.90;;;3.60;;
1721;SDS011;858;53.190;8.596;2022-12-07T01:53:04;7.63;;;3.58;;
1721;SDS011;858;53.190;8.596;2022-12-07T01:55:33;8.02;;;3.90;;
1721;SDS011;858;53.190;8.596;2022-12-07T01:58:00;9.25;;;4.30;;
1721;SDS011;858;53.190;8.596;2022-12-07T02:00:26;11.38;;;4.47;;
1721;SDS011;858;53.190;8.596;2022-12-07T02:02:53;8.40;;;4.70;;
1721;SDS011;858;53.190;8.596;2022-12-07T02:05:21;6.85;;;4.30;;
1721;SDS011;858;53.190;8.596;2022-12-07T02:07:48;11.63;;;5.65;;
1721;SDS011;858;53.190;8.596;2022-12-07T02:10:18;10.50;;;5.00;;
1721;SDS011;858;53.190;8.596;2022-12-07T02:12:44;12.10;;;4.97;;
1721;SDS011;858;53.190;8.596;2022-12-07T02:15:12;9.03;;;5.40;;
1721;SDS011;858;53.190;8.596;2022-12-07T02:17:41;9.20;;;5.03;;
1721;SDS011;858;53.190;8.596;2022-12-07T02:20:17;10.13;;;5.27;;
1721;SDS011;858;53.190;8.596;2022-12-07T02:25:32;12.63;;;4.97;;
1721;SDS011;858;53.190;8.596;2022-12-07T02:28:02;12.05;;;4.93;;
1721;SDS011;858;53.190;8.596;2022-12-07T02:30:32;10.98;;;5.18;;
1721;SDS011;858;53.190;8.596;2022-12-07T02:33:00;11.48;;;5.20;;
1721;SDS011;858;53.190;8.596;2022-12-07T02:35:28;9.95;;;5.30;;
1721;SDS011;858;53.190;8.596;2022-12-07T02:37:58;9.10;;;5.00;;
1721;SDS011;858;53.190;8.596;2022-12-07T02:40:29;6.83;;;4.80;;
1721;SDS011;858;53.190;8.596;2022-12-07T02:42:59;12.43;;;5.40;;
1721;SDS011;858;53.190;8.596;2022-12-07T02:45:27;9.13;;;5.25;;
1721;SDS011;858;53.190;8.596;2022-12-07T02:47:57;11.10;;;4.80;;
1721;SDS011;858;53.190;8.596;2022-12-07T02:50:25;7.33;;;5.10;;
1721;SDS011;858;53.190;8.596;2022-12-07T02:52:51;8.57;;;4.80;;
1721;SDS011;858;53.190;8.596;2022-12-07T02:55:18;8.75;;;4.20;;
1721;SDS011;858;53.190;8.596;2022-12-07T02:57:52;9.40;;;4.72;;
1721;SDS011;858;53.190;8.596;2022-12-07T03:00:21;8.55;;;3.50;;
1721;SDS011;858;53.190;8.596;2022-12-07T03:02:51;10.30;;;3.70;;
1721;SDS011;858;53.190;8.596;2022-12-07T03:05:29;6.07;;;3.38;;
1721;SDS011;858;53.190;8.596;2022-12-07T03:07:59;9.43;;;3.20;;
1721;SDS011;858;53.190;8.596;2022-12-07T03:10:27;7.10;;;2.83;;
1721;SDS011;858;53.190;8.596;2022-12-07T03:12:57;6.82;;;2.55;;
1721;SDS011;858;53.190;8.596;2022-12-07T03:15:26;6.10;;;2.00;;
1721;SDS011;858;53.190;8.596;2022-12-07T03:17:55;8.32;;;2.83;;
1721;SDS011;858;53.190;8.596;2022-12-07T03:20:23;5.65;;;2.15;;
1721;SDS011;858;53.190;8.596;2022-12-07T03:22:51;7.95;;;2.28;;
1721;SDS011;858;53.190;8.596;2022-12-07T03:25:18;7.70;;;2.40;;
1721;SDS011;858;53.190;8.596;2022-12-07T03:27:46;6.88;;;2.10;;
1721;SDS011;858;53.190;8.596;2022-12-07T03:30:16;5.93;;;3.07;;
1721;SDS011;858;53.190;8.596;2022-12-07T03:32:43;7.05;;;2.65;;
1721;SDS011;858;53.190;8.596;2022-12-07T03:35:12;8.75;;;3.88;;
1721;SDS011;858;53.190;8.596;2022-12-07T03:37:42;9.80;;;4.60;;
1721;SDS011;858;53.190;8.596;2022-12-07T03:40:14;12.45;;;6.80;;
1721;SDS011;858;53.190;8.596;2022-12-07T03:42:42;11.70;;;6.75;;
1721;SDS011;858;53.190;8.596;2022-12-07T03:45:09;14.27;;;7.65;;
1721;SDS011;858;53.190;8.596;2022-12-07T03:47:37;11.07;;;6.53;;
1721;SDS011;858;53.190;8.596;2022-12-07T03:50:06;7.95;;;5.90;;
1721;SDS011;858;53.190;8.596;2022-12-07T03:52:33;11.52;;;5.78;;
1721;SDS011;858;53.190;8.596;2022-12-07T03:55:04;7.38;;;5.15;;
1721;SDS011;858;53.190;8.596;2022-12-07T03:57:34;9.48;;;4.70;;
1721;SDS011;858;53.190;8.596;2022-12-07T04:00:01;8.77;;;4.40;;
1721;SDS011;858;53.190;8.596;2022-12-07T04:02:30;9.25;;;4.90;;
1721;SDS011;858;53.190;8.596;2022-12-07T04:04:56;8.05;;;4.40;;
1721;SDS011;858;53.190;8.596;2022-12-07T04:07:23;10.15;;;3.90;;
1721;SDS011;858;53.190;8.596;2022-12-07T04:09:49;12.18;;;4.38;;
1721;SDS011;858;53.190;8.596;2022-12-07T04:12:15;10.75;;;5.00;;
1721;SDS011;858;53.190;8.596;2022-12-07T04:14:43;7.57;;;4.47;;
1721;SDS011;858;53.190;8.596;2022-12-07T04:17:10;9.63;;;4.72;;
1721;SDS011;858;53.190;8.596;2022-12-07T04:19:36;10.68;;;5.70;;
1721;SDS011;858;53.190;8.596;2022-12-07T04:22:03;14.13;;;5.25;;
1721;SDS011;858;53.190;8.596;2022-12-07T04:24:30;6.32;;;4.55;;
1721;SDS011;858;53.190;8.596;2022-12-07T04:26:56;10.32;;;5.45;;
1721;SDS011;858;53.190;8.596;2022-12-07T04:29:22;12.63;;;5.85;;
1721;SDS011;858;53.190;8.596;2022-12-07T04:31:50;9.23;;;4.47;;
1721;SDS011;858;53.190;8.596;2022-12-07T04:34:17;11.68;;;5.15;;
1721;SDS011;858;53.190;8.596;2022-12-07T04:36:44;9.52;;;4.82;;
1721;SDS011;858;53.190;8.596;2022-12-07T04:39:14;9.45;;;4.78;;
1721;SDS011;858;53.190;8.596;2022-12-07T04:41:43;9.18;;;4.40;;
1721;SDS011;858;53.190;8.596;2022-12-07T04:44:09;10.10;;;5.10;;
1721;SDS011;858;53.190;8.596;2022-12-07T04:46:36;10.40;;;4.60;;
1721;SDS011;858;53.190;8.596;2022-12-07T04:49:04;9.00;;;4.30;;
1721;SDS011;858;53.190;8.596;2022-12-07T04:51:30;8.90;;;3.97;;
1721;SDS011;858;53.190;8.596;2022-12-07T04:53:56;8.57;;;4.00;;
1721;SDS011;858;53.190;8.596;2022-12-07T04:56:23;8.15;;;4.00;;
1721;SDS011;858;53.190;8.596;2022-12-07T04:58:49;8.73;;;4.30;;
1721;SDS011;858;53.190;8.596;2022-12-07T05:01:16;7.10;;;3.70;;
1721;SDS011;858;53.190;8.596;2022-12-07T05:03:43;9.52;;;4.10;;
1721;SDS011;858;53.190;8.596;2022-12-07T05:06:10;11.18;;;4.53;;
1721;SDS011;858;53.190;8.596;2022-12-07T05:08:37;11.25;;;4.40;;
1721;SDS011;858;53.190;8.596;2022-12-07T05:11:04;11.68;;;4.30;;
1721;SDS011;858;53.190;8.596;2022-12-07T05:13:31;9.25;;;4.35;;
1721;SDS011;858;53.190;8.596;2022-12-07T05:15:57;8.00;;;3.80;;
1721;SDS011;858;53.190;8.596;2022-12-07T05:18:24;9.90;;;4.50;;
1721;SDS011;858;53.190;8.596;2022-12-07T05:20:50;10.20;;;3.50;;
1721;SDS011;858;53.190;8.596;2022-12-07T05:23:19;7.03;;;3.30;;
1721;SDS011;858;53.190;8.596;2022-12-07T05:25:46;7.70;;;3.50;;
1721;SDS011;858;53.190;8.596;2022-12-07T05:28:12;5.18;;;3.63;;
1721;SDS011;858;53.190;8.596;2022-12-07T05:30:39;6.22;;;2.88;;
1721;SDS011;858;53.190;8.596;2022-12-07T05:33:05;5.55;;;3.20;;
1721;SDS011;858;53.190;8.596;2022-12-07T05:35:31;5.97;;;2.60;;
1721;SDS011;858;53.190;8.596;2022-12-07T05:37:58;6.13;;;2.60;;
1721;SDS011;858;53.190;8.596;2022-12-07T05:40:25;6.55;;;2.30;;
1721;SDS011;858;53.190;8.596;2022-12-07T05:42:53;9.30;;;2.63;;
1721;SDS011;858;53.190;8.596;2022-12-07T05:45:19;4.75;;;2.00;;
1721;SDS011;858;53.190;8.596;2022-12-07T05:47:45;4.47;;;2.10;;
1721;SDS011;858;53.190;8.596;2022-12-07T05:50:12;5.40;;;1.80;;
1721;SDS011;858;53.190;8.596;2022-12-07T05:52:38;4.47;;;2.00;;
1721;SDS011;858;53.190;8.596;2022-12-07T05:55:05;5.10;;;2.00;;
1721;SDS011;858;53.190;8.596;2022-12-07T05:57:33;7.50;;;1.90;;
1721;SDS011;858;53.190;8.596;2022-12-07T06:00:00;3.17;;;1.60;;
1721;SDS011;858;53.190;8.596;2022-12-07T06:02:26;4.50;;;1.80;;
1721;SDS011;858;53.190;8.596;2022-12-07T06:04:53;3.88;;;2.10;;
1721;SDS011;858;53.190;8.596;2022-12-07T06:07:19;3.53;;;2.10;;
1721;SDS011;858;53.190;8.596;2022-12-07T06:09:45;4.65;;;2.60;;
1721;SDS011;858;53.190;8.596;2022-12-07T06:12:12;4.53;;;2.60;;
1721;SDS011;858;53.190;8.596;2022-12-07T06:14:58;5.40;;;3.78;;
1721;SDS011;858;53.190;8.596;2022-12-07T06:17:24;5.30;;;4.10;;
1721;SDS011;858;53.190;8.596;2022-12-07T06:19:50;5.20;;;3.75;;
1721;SDS011;858;53.190;8.596;2022-12-07T06:22:17;6.15;;;3.17;;
1721;SDS011;858;53.190;8.596;2022-12-07T06:24:43;5.35;;;2.38;;
1721;SDS011;858;53.190;8.596;2022-12-07T06:27:10;5.07;;;2.50;;
1721;SDS011;858;53.190;8.596;2022-12-07T06:29:36;4.97;;;2.53;;
1721;SDS011;858;53.190;8.596;2022-12-07T06:32:05;9.07;;;2.28;;
1721;SDS011;858;53.190;8.596;2022-12-07T06:34:32;4.75;;;1.80;;
1721;SDS011;858;53.190;8.596;2022-12-07T06:36:58;3.08;;;1.60;;
1721;SDS011;858;53.190;8.596;2022-12-07T06:39:25;6.53;;;2.15;;
1721;SDS011;858;53.190;8.596;2022-12-07T06:41:52;5.85;;;2.50;;
1721;SDS011;858;53.190;8.596;2022-12-07T06:44:19;6.43;;;2.60;;
1721;SDS011;858;53.190;8.596;2022-12-07T06:46:45;5.50;;;2.20;;
1721;SDS011;858;53.190;8.596;2022-12-07T06:49:13;12.65;;;2.88;;
1721;SDS011;858;53.190;8.596;2022-12-07T06:51:40;7.30;;;2.20;;
1721;SDS011;858;53.190;8.596;2022-12-07T06:54:07;6.22;;;2.45;;
1721;SDS011;858;53.190;8.596;2022-12-07T06:56:33;6.35;;;3.00;;
1721;SDS011;858;53.190;8.596;2022-12-07T06:59:00;5.60;;;2.42;;
1721;SDS011;858;53.190;8.596;2022-12-07T07:01:27;9.10;;;2.75;;
1721;SDS011;858;53.190;8.596;2022-12-07T07:03:55;4.55;;;2.67;;
1721;SDS011;858;53.190;8.596;2022-12-07T07:06:23;5.95;;;3.10;;
1721;SDS011;858;53.190;8.596;2022-12-07T07:08:49;5.88;;;2.60;;
1721;SDS011;858;53.190;8.596;2022-12-07T07:11:16;10.35;;;2.80;;
1721;SDS011;858;53.190;8.596;2022-12-07T07:13:42;4.10;;;2.55;;
1721;SDS011;858;53.190;8.596;2022-12-07T07:16:08;8.77;;;2.90;;
1721;SDS011;858;53.190;8.596;2022-12-07T07:18:35;11.30;;;2.35;;
1721;SDS011;858;53.190;8.596;2022-12-07T07:21:02;9.10;;;2.13;;
1721;SDS011;858;53.190;8.596;2022-12-07T07:23:29;6.15;;;2.30;;
1721;SDS011;858;53.190;8.596;2022-12-07T07:25:56;6.68;;;2.30;;
1721;SDS011;858;53.190;8.596;2022-12-07T07:28:22;6.25;;;2.60;;
1721;SDS011;858;53.190;8.596;2022-12-07T07:30:49;6.78;;;2.03;;
1721;SDS011;858;53.190;8.596;2022-12-07T07:33:15;5.10;;;1.98;;
1721;SDS011;858;53.190;8.596;2022-12-07T07:35:41;6.72;;;2.53;;
1721;SDS011;858;53.190;8.596;2022-12-07T07:38:08;6.05;;;2.25;;
1721;SDS011;858;53.190;8.596;2022-12-07T07:40:35;6.28;;;2.22;;
1721;SDS011;858;53.190;8.596;2022-12-07T07:43:02;7.38;;;2.53;;
1721;SDS011;858;53.190;8.596;2022-12-07T07:45:28;5.93;;;2.47;;
1721;SDS011;858;53.190;8.596;2022-12-07T07:47:55;8.23;;;2.30;;
1721;SDS011;858;53.190;8.596;2022-12-07T07:50:21;6.72;;;2.00;;
1721;SDS011;858;53.190;8.596;2022-12-07T07:52:47;6.73;;;2.20;;
1721;SDS011;858;53.190;8.596;2022-12-07T07:55:14;4.40;;;2.13;;
1721;SDS011;858;53.190;8.596;2022-12-07T07:57:41;6.55;;;2.20;;
1721;SDS011;858;53.190;8.596;2022-12-07T08:00:08;4.45;;;2.40;;
1721;SDS011;858;53.190;8.596;2022-12-07T08:02:35;5.82;;;2.28;;
1721;SDS011;858;53.190;8.596;2022-12-07T08:05:01;4.32;;;2.40;;
1721;SDS011;858;53.190;8.596;2022-12-07T08:07:29;5.18;;;2.00;;
1721;SDS011;858;53.190;8.596;2022-12-07T08:09:56;5.45;;;1.63;;
1721;SDS011;858;53.190;8.596;2022-12-07T08:12:22;6.40;;;1.70;;
1721;SDS011;858;53.190;8.596;2022-12-07T08:14:50;5.07;;;2.07;;
1721;SDS011;858;53.190;8.596;2022-12-07T08:17:18;4.70;;;1.80;;
1721;SDS011;858;53.190;8.596;2022-12-07T08:19:45;2.80;;;1.60;;
1721;SDS011;858;53.190;8.596;2022-12-07T08:22:11;3.22;;;1.50;;
1721;SDS011;858;53.190;8.596;2022-12-07T08:24:37;3.58;;;1.55;;
1721;SDS011;858;53.190;8.596;2022-12-07T08:27:04;5.22;;;1.80;;
1721;SDS011;858;53.190;8.596;2022-12-07T08:29:30;4.88;;;1.80;;
1721;SDS011;858;53.190;8.596;2022-12-07T08:31:58;5.47;;;1.60;;
1721;SDS011;858;53.190;8.596;2022-12-07T08:34:26;4.93;;;1.60;;
1721;SDS011;858;53.190;8.596;2022-12-07T08:36:52;6.60;;;1.70;;
1721;SDS011;858;53.190;8.596;2022-12-07T08:39:19;6.28;;;2.10;;
1721;SDS011;858;53.190;8.596;2022-12-07T08:41:45;7.00;;;1.80;;
1721;SDS011;858;53.190;8.596;2022-12-07T08:44:11;9.13;;;2.17;;
1721;SDS011;858;53.190;8.596;2022-12-07T08:46:38;5.03;;;1.67;;
1721;SDS011;858;53.190;8.596;2022-12-07T08:49:07;3.08;;;1.30;;
1721;SDS011;858;53.190;8.596;2022-12-07T08:51:35;2.42;;;1.60;;
1721;SDS011;858;53.190;8.596;2022-12-07T08:54:02;3.80;;;1.40;;
1721;SDS011;858;53.190;8.596;2022-12-07T08:56:30;5.38;;;1.70;;
1721;SDS011;858;53.190;8.596;2022-12-07T08:58:58;5.60;;;1.40;;
1721;SDS011;858;53.190;8.596;2022-12-07T09:01:24;2.58;;;1.20;;
1721;SDS011;858;53.190;8.596;2022-12-07T09:03:52;4.22;;;1.30;;
1721;SDS011;858;53.190;8.596;2022-12-07T09:06:20;4.85;;;1.50;;
1721;SDS011;858;53.190;8.596;2022-12-07T09:08:46;6.72;;;1.73;;
1721;SDS011;858;53.190;8.596;2022-12-07T09:11:13;5.40;;;1.80;;
1721;SDS011;858;53.190;8.596;2022-12-07T09:13:40;7.10;;;2.20;;
1721;SDS011;858;53.190;8.596;2022-12-07T09:16:06;5.20;;;1.70;;
1721;SDS011;858;53.190;8.596;2022-12-07T09:18:33;4.72;;;2.00;;
1721;SDS011;858;53.190;8.596;2022-12-07T09:20:59;5.23;;;2.30;;
1721;SDS011;858;53.190;8.596;2022-12-07T09:23:27;4.05;;;2.20;;
1721;SDS011;858;53.190;8.596;2022-12-07T09:25:53;5.30;;;2.40;;
1721;SDS011;858;53.190;8.596;2022-12-07T09:28:20;5.55;;;2.20;;
1721;SDS011;858;53.190;8.596;2022-12-07T09:30:46;7.57;;;2.53;;
1721;SDS011;858;53.190;8.596;2022-12-07T09:33:13;3.50;;;2.10;;
1721;SDS011;858;53.190;8.596;2022-12-07T09:35:43;6.82;;;2.70;;
1721;SDS011;858;53.190;8.596;2022-12-07T09:38:10;5.60;;;2.42;;
1721;SDS011;858;53.190;8.596;2022-12-07T09:40:38;6.38;;;2.70;;
1721;SDS011;858;53.190;8.596;2022-12-07T09:43:11;5.95;;;2.50;;
1721;SDS011;858;53.190;8.596;2022-12-07T09:45:38;4.80;;;2.60;;
1721;SDS011;858;53.190;8.596;2022-12-07T09:48:05;9.43;;;2.88;;
1721;SDS011;858;53.190;8.596;2022-12-07T09:50:32;7.93;;;3.10;;
1721;SDS011;858;53.190;8.596;2022-12-07T09:53:03;5.82;;;2.88;;
1721;SDS011;858;53.190;8.596;2022-12-07T09:55:33;6.97;;;2.65;;
1721;SDS011;858;53.190;8.596;2022-12-07T09:58:01;7.85;;;2.70;;
1721;SDS011;858;53.190;8.596;2022-12-07T10:00:27;5.90;;;2.78;;
1721;SDS011;858;53.190;8.596;2022-12-07T10:02:54;5.32;;;2.60;;
1721;SDS011;858;53.190;8.596;2022-12-07T10:05:22;7.38;;;2.90;;
1721;SDS011;858;53.190;8.596;2022-12-07T10:07:50;8.38;;;2.88;;
1721;SDS011;858;53.190;8.596;2022-12-07T10:10:17;8.57;;;3.35;;
1721;SDS011;858;53.190;8.596;2022-12-07T10:12:52;8.25;;;2.83;;
1721;SDS011;858;53.190;8.596;2022-12-07T10:15:20;7.57;;;3.00;;
1721;SDS011;858;53.190;8.596;2022-12-07T10:17:47;7.10;;;3.03;;
1721;SDS011;858;53.190;8.596;2022-12-07T10:20:15;7.60;;;3.20;;
1721;SDS011;858;53.190;8.596;2022-12-07T10:22:55;7.72;;;2.70;;
1721;SDS011;858;53.190;8.596;2022-12-07T10:25:22;6.80;;;2.00;;
1721;SDS011;858;53.190;8.596;2022-12-07T10:27:57;2.55;;;2.00;;
1721;SDS011;858;53.190;8.596;2022-12-07T10:30:24;4.90;;;2.50;;
1721;SDS011;858;53.190;8.596;2022-12-07T10:32:51;5.32;;;2.20;;
1721;SDS011;858;53.190;8.596;2022-12-07T10:35:18;5.30;;;2.40;;
1721;SDS011;858;53.190;8.596;2022-12-07T10:37:47;6.75;;;2.40;;
1721;SDS011;858;53.190;8.596;2022-12-07T10:40:23;5.13;;;2.30;;
1721;SDS011;858;53.190;8.596;2022-12-07T10:42:59;8.10;;;2.40;;
1721;SDS011;858;53.190;8.596;2022-12-07T10:45:28;8.10;;;2.40;;
1721;SDS011;858;53.190;8.596;2022-12-07T10:47:55;6.43;;;2.50;;
1721;SDS011;858;53.190;8.596;2022-12-07T10:50:31;4.60;;;1.90;;
1721;SDS011;858;53.190;8.596;2022-12-07T10:53:08;6.90;;;2.28;;
1721;SDS011;858;53.190;8.596;2022-12-07T10:55:40;6.18;;;2.20;;
1721;SDS011;858;53.190;8.596;2022-12-07T10:58:16;5.22;;;2.38;;
1721;SDS011;858;53.190;8.596;2022-12-07T11:00:49;6.13;;;2.10;;
1721;SDS011;858;53.190;8.596;2022-12-07T11:03:30;6.72;;;2.33;;
1721;SDS011;858;53.190;8.596;2022-12-07T11:06:03;12.93;;;2.30;;
1721;SDS011;858;53.190;8.596;2022-12-07T11:08:39;7.43;;;2.28;;
1721;SDS011;858;53.190;8.596;2022-12-07T11:11:09;5.07;;;2.13;;
1721;SDS011;858;53.190;8.596;2022-12-07T11:13:40;6.05;;;2.10;;
1721;SDS011;858;53.190;8.596;2022-12-07T11:19:01;6.03;;;2.65;;
1721;SDS011;858;53.190;8.596;2022-12-07T11:21:31;8.77;;;2.80;;
1721;SDS011;858;53.190;8.596;2022-12-07T11:24:01;18.83;;;11.20;;
1721;SDS011;858;53.190;8.596;2022-12-07T11:26:41;12.93;;;6.35;;
1721;SDS011;858;53.190;8.596;2022-12-07T11:29:16;8.52;;;2.80;;
1721;SDS011;858;53.190;8.596;2022-12-07T11:31:49;15.65;;;6.47;;
1721;SDS011;858;53.190;8.596;2022-12-07T11:34:22;14.63;;;9.27;;
1721;SDS011;858;53.190;8.596;2022-12-07T11:36:51;11.88;;;5.20;;
1721;SDS011;858;53.190;8.596;2022-12-07T11:39:20;10.95;;;4.40;;
1721;SDS011;858;53.190;8.596;2022-12-07T11:41:49;7.38;;;2.00;;
1721;SDS011;858;53.190;8.596;2022-12-07T11:44:20;8.95;;;2.92;;
1721;SDS011;858;53.190;8.596;2022-12-07T11:46:52;9.32;;;2.25;;
1721;SDS011;858;53.190;8.596;2022-12-07T11:49:23;8.43;;;1.90;;
1721;SDS011;858;53.190;8.596;2022-12-07T11:51:52;4.10;;;1.60;;
1721;SDS011;858;53.190;8.596;2022-12-07T11:54:21;5.53;;;1.75;;
1721;SDS011;858;53.190;8.596;2022-12-07T11:56:50;10.05;;;4.60;;
1721;SDS011;858;53.190;8.596;2022-12-07T11:59:17;6.50;;;1.93;;
1721;SDS011;858;53.190;8.596;2022-12-07T12:01:48;7.00;;;1.88;;
1721;SDS011;858;53.190;8.596;2022-12-07T12:04:21;5.63;;;1.52;;
1721;SDS011;858;53.190;8.596;2022-12-07T12:06:51;5.50;;;1.40;;
1721;SDS011;858;53.190;8.596;2022-12-07T12:09:19;7.00;;;1.80;;
1721;SDS011;858;53.190;8.596;2022-12-07T12:11:52;3.90;;;1.65;;
1721;SDS011;858;53.190;8.596;2022-12-07T12:14:39;7.13;;;1.83;;
1721;SDS011;858;53.190;8.596;2022-12-07T12:19:59;7.15;;;2.40;;
1721;SDS011;858;53.190;8.596;2022-12-07T12:22:32;5.22;;;1.30;;
1721;SDS011;858;53.190;8.596;2022-12-07T12:24:59;6.32;;;1.70;;
1721;SDS011;858;53.190;8.596;2022-12-07T12:27:26;6.38;;;1.40;;
1721;SDS011;858;53.190;8.596;2022-12-07T12:29:57;5.38;;;1.30;;
1721;SDS011;858;53.190;8.596;2022-12-07T12:32:29;3.50;;;1.20;;
1721;SDS011;858;53.190;8.596;2022-12-07T12:35:17;6.85;;;1.83;;
1721;SDS011;858;53.190;8.596;2022-12-07T12:37:47;3.78;;;1.30;;
1721;SDS011;858;53.190;8.596;2022-12-07T12:42:59;4.38;;;1.50;;
1721;SDS011;858;53.190;8.596;2022-12-07T12:45:26;3.10;;;1.70;;
1721;SDS011;858;53.190;8.596;2022-12-07T12:47:56;5.53;;;1.50;;
1721;SDS011;858;53.190;8.596;2022-12-07T12:50:25;6.90;;;1.83;;
1721;SDS011;858;53.190;8.596;2022-12-07T12:53:00;2.97;;;1.85;;
1721;SDS011;858;53.190;8.596;2022-12-07T13:03:45;6.82;;;2.80;;
1721;SDS011;858;53.190;8.596;2022-12-07T13:06:18;6.93;;;2.30;;
1721;SDS011;858;53.190;8.596;2022-12-07T13:08:47;8.05;;;2.67;;
1721;SDS011;858;53.190;8.596;2022-12-07T13:11:17;6.85;;;2.05;;
1721;SDS011;858;53.190;8.596;2022-12-07T13:13:44;9.20;;;2.70;;
1721;SDS011;858;53.190;8.596;2022-12-07T13:18:52;6.50;;;2.10;;
1721;SDS011;858;53.190;8.596;2022-12-07T13:24:11;8.45;;;2.58;;
1721;SDS011;858;53.190;8.596;2022-12-07T13:26:39;7.78;;;2.58;;
1721;SDS011;858;53.190;8.596;2022-12-07T13:29:09;13.37;;;2.90;;
1721;SDS011;858;53.190;8.596;2022-12-07T13:31:37;12.77;;;2.60;;
1721;SDS011;858;53.190;8.596;2022-12-07T13:34:26;11.98;;;3.28;;
1721;SDS011;858;53.190;8.596;2022-12-07T13:36:53;7.77;;;2.83;;
1721;SDS011;858;53.190;8.596;2022-12-07T13:39:21;9.65;;;2.60;;
1721;SDS011;858;53.190;8.596;2022-12-07T13:41:49;6.90;;;2.30;;
1721;SDS011;858;53.190;8.596;2022-12-07T13:44:17;6.65;;;2.80;;
1721;SDS011;858;53.190;8.596;2022-12-07T13:46:45;9.40;;;2.65;;
1721;SDS011;858;53.190;8.596;2022-12-07T13:49:17;11.63;;;2.80;;
1721;SDS011;858;53.190;8.596;2022-12-07T13:51:43;9.63;;;2.85;;
1721;SDS011;858;53.190;8.596;2022-12-07T13:54:10;9.90;;;3.50;;
1721;SDS011;858;53.190;8.596;2022-12-07T13:56:40;12.63;;;3.20;;
1721;SDS011;858;53.190;8.596;2022-12-07T13:59:10;12.18;;;3.80;;
1721;SDS011;858;53.190;8.596;2022-12-07T14:01:38;8.55;;;3.00;;
1721;SDS011;858;53.190;8.596;2022-12-07T14:04:18;6.07;;;2.55;;
1721;SDS011;858;53.190;8.596;2022-12-07T14:06:48;4.80;;;2.35;;
1721;SDS011;858;53.190;8.596;2022-12-07T14:09:17;5.25;;;2.33;;
1721;SDS011;858;53.190;8.596;2022-12-07T14:11:45;6.00;;;2.20;;
1721;SDS011;858;53.190;8.596;2022-12-07T14:14:13;7.38;;;2.47;;
1721;SDS011;858;53.190;8.596;2022-12-07T14:16:40;7.55;;;2.65;;
1721;SDS011;858;53.190;8.596;2022-12-07T14:19:37;6.43;;;2.47;;
1721;SDS011;858;53.190;8.596;2022-12-07T14:22:07;5.43;;;1.90;;
1721;SDS011;858;53.190;8.596;2022-12-07T14:24:40;4.85;;;2.00;;
1721;SDS011;858;53.190;8.596;2022-12-07T14:27:16;7.28;;;1.90;;
1721;SDS011;858;53.190;8.596;2022-12-07T14:29:43;4.43;;;1.60;;
1721;SDS011;858;53.190;8.596;2022-12-07T14:32:17;5.68;;;1.60;;
1721;SDS011;858;53.190;8.596;2022-12-07T14:34:52;6.47;;;1.58;;
1721;SDS011;858;53.190;8.596;2022-12-07T14:37:19;5.17;;;2.30;;
1721;SDS011;858;53.190;8.596;2022-12-07T14:39:45;6.10;;;2.50;;
1721;SDS011;858;53.190;8.596;2022-12-07T14:42:12;7.55;;;3.38;;
1721;SDS011;858;53.190;8.596;2022-12-07T14:44:40;7.87;;;4.23;;
1721;SDS011;858;53.190;8.596;2022-12-07T14:47:07;13.97;;;8.73;;
1721;SDS011;858;53.190;8.596;2022-12-07T14:49:35;11.43;;;7.88;;
1721;SDS011;858;53.190;8.596;2022-12-07T14:52:01;10.30;;;5.65;;
1721;SDS011;858;53.190;8.596;2022-12-07T14:54:28;9.50;;;3.97;;
1721;SDS011;858;53.190;8.596;2022-12-07T14:56:56;17.38;;;9.23;;
1721;SDS011;858;53.190;8.596;2022-12-07T14:59:22;9.38;;;5.75;;
1721;SDS011;858;53.190;8.596;2022-12-07T15:01:50;6.80;;;5.13;;
1721;SDS011;858;53.190;8.596;2022-12-07T15:04:16;14.20;;;10.73;;
1721;SDS011;858;53.190;8.596;2022-12-07T15:06:53;13.63;;;8.30;;
1721;SDS011;858;53.190;8.596;2022-12-07T15:09:20;12.47;;;8.53;;
1721;SDS011;858;53.190;8.596;2022-12-07T15:11:46;6.60;;;4.20;;
1721;SDS011;858;53.190;8.596;2022-12-07T15:14:13;5.10;;;3.67;;
1721;SDS011;858;53.190;8.596;2022-12-07T15:16:40;5.18;;;3.90;;
1721;SDS011;858;53.190;8.596;2022-12-07T15:19:10;7.97;;;3.30;;
1721;SDS011;858;53.190;8.596;2022-12-07T15:21:38;6.45;;;3.83;;
1721;SDS011;858;53.190;8.596;2022-12-07T15:24:04;10.57;;;3.40;;
1721;SDS011;858;53.190;8.596;2022-12-07T15:26:31;6.65;;;2.70;;
1721;SDS011;858;53.190;8.596;2022-12-07T15:28:57;7.80;;;4.00;;
1721;SDS011;858;53.190;8.596;2022-12-07T15:31:23;6.50;;;2.50;;
1721;SDS011;858;53.190;8.596;2022-12-07T15:33:50;5.47;;;3.20;;
1721;SDS011;858;53.190;8.596;2022-12-07T15:36:19;5.90;;;2.95;;
1721;SDS011;858;53.190;8.596;2022-12-07T15:38:46;6.20;;;2.60;;
1721;SDS011;858;53.190;8.596;2022-12-07T15:41:13;7.25;;;3.58;;
1721;SDS011;858;53.190;8.596;2022-12-07T15:43:39;7.47;;;4.10;;
1721;SDS011;858;53.190;8.596;2022-12-07T15:46:23;9.52;;;4.35;;
1721;SDS011;858;53.190;8.596;2022-12-07T15:48:49;4.57;;;2.60;;
1721;SDS011;858;53.190;8.596;2022-12-07T15:51:15;7.22;;;2.70;;
1721;SDS011;858;53.190;8.596;2022-12-07T15:53:43;6.97;;;3.28;;
1721;SDS011;858;53.190;8.596;2022-12-07T15:56:10;5.20;;;2.90;;